sensor_id;sensor_type;location;lat;lon;timestamp;P1;durP1;ratioP1;P2;durP2;ratioP2
3309;SDS011;1667;53.238;10.394;2024-01-30T00:03:29;5.63;;;4.10;;
3309;SDS011;1667;53.238;10.394;2024-01-30T00:08:29;5.80;;;4.40;;
3309;SDS011;1667;53.238;10.394;2024-01-30T00:13:30;5.53;;;4.00;;
3309;SDS011;1667;53.238;10.394;2024-01-30T00:18:30;8.87;;;4.60;;
3309;SDS011;1667;53.238;10.394;2024-01-30T00:23:30;8.07;;;4.77;;
3309;SDS011;1667;53.238;10.394;2024-01-30T00:28:32;5.97;;;4.20;;
3309;SDS011;1667;53.238;10.394;2024-01-30T00:33:32;5.07;;;4.30;;
3309;SDS011;1667;53.238;10.394;2024-01-30T00:38:31;4.67;;;4.27;;
3309;SDS011;1667;53.238;10.394;2024-01-30T00:43:33;7.67;;;3.87;;
3309;SDS011;1667;53.238;10.394;2024-01-30T00:48:34;4.50;;;3.70;;
3309;SDS011;1667;53.238;10.394;2024-01-30T00:53:33;5.90;;;3.80;;
3309;SDS011;1667;53.238;10.394;2024-01-30T00:58:35;5.17;;;4.67;;
3309;SDS011;1667;53.238;10.394;2024-01-30T01:03:35;5.57;;;3.97;;
3309;SDS011;1667;53.238;10.394;2024-01-30T01:08:35;7.83;;;5.07;;
3309;SDS011;1667;53.238;10.394;2024-01-30T01:13:36;6.23;;;4.90;;
3309;SDS011;1667;53.238;10.394;2024-01-30T01:18:37;6.43;;;5.43;;
3309;SDS011;1667;53.238;10.394;2024-01-30T01:23:37;6.70;;;4.90;;
3309;SDS011;1667;53.238;10.394;2024-01-30T01:28:38;4.67;;;4.20;;
3309;SDS011;1667;53.238;10.394;2024-01-30T01:33:39;4.90;;;3.60;;
3309;SDS011;1667;53.238;10.394;2024-01-30T01:38:38;6.47;;;4.70;;
3309;SDS011;1667;53.238;10.394;2024-01-30T01:43:58;6.63;;;5.50;;
3309;SDS011;1667;53.238;10.394;2024-01-30T01:48:59;8.97;;;5.50;;
3309;SDS011;1667;53.238;10.394;2024-01-30T01:54:01;6.03;;;4.73;;
3309;SDS011;1667;53.238;10.394;2024-01-30T01:59:06;5.00;;;3.67;;
3309;SDS011;1667;53.238;10.394;2024-01-30T02:04:06;7.53;;;5.30;;
3309;SDS011;1667;53.238;10.394;2024-01-30T02:09:06;8.67;;;5.67;;
3309;SDS011;1667;53.238;10.394;2024-01-30T02:14:08;9.43;;;5.80;;
3309;SDS011;1667;53.238;10.394;2024-01-30T02:19:08;11.77;;;6.10;;
3309;SDS011;1667;53.238;10.394;2024-01-30T02:24:09;10.83;;;5.77;;
3309;SDS011;1667;53.238;10.394;2024-01-30T02:29:28;8.43;;;6.00;;
3309;SDS011;1667;53.238;10.394;2024-01-30T02:34:28;6.60;;;5.10;;
3309;SDS011;1667;53.238;10.394;2024-01-30T02:39:29;9.13;;;5.63;;
3309;SDS011;1667;53.238;10.394;2024-01-30T02:44:29;5.73;;;4.83;;
3309;SDS011;1667;53.238;10.394;2024-01-30T02:49:29;13.63;;;5.60;;
3309;SDS011;1667;53.238;10.394;2024-01-30T02:54:31;6.37;;;5.00;;
3309;SDS011;1667;53.238;10.394;2024-01-30T02:59:31;9.43;;;6.47;;
3309;SDS011;1667;53.238;10.394;2024-01-30T03:04:33;9.73;;;5.00;;
3309;SDS011;1667;53.238;10.394;2024-01-30T03:09:35;8.13;;;5.13;;
3309;SDS011;1667;53.238;10.394;2024-01-30T03:14:36;9.30;;;4.93;;
3309;SDS011;1667;53.238;10.394;2024-01-30T03:19:35;8.13;;;4.07;;
3309;SDS011;1667;53.238;10.394;2024-01-30T03:24:37;5.23;;;4.40;;
3309;SDS011;1667;53.238;10.394;2024-01-30T03:29:37;12.80;;;6.07;;
3309;SDS011;1667;53.238;10.394;2024-01-30T03:34:35;5.93;;;4.40;;
3309;SDS011;1667;53.238;10.394;2024-01-30T03:39:36;12.80;;;6.90;;
3309;SDS011;1667;53.238;10.394;2024-01-30T03:44:35;8.17;;;5.20;;
3309;SDS011;1667;53.238;10.394;2024-01-30T03:49:34;6.87;;;5.20;;
3309;SDS011;1667;53.238;10.394;2024-01-30T03:54:33;13.77;;;7.00;;
3309;SDS011;1667;53.238;10.394;2024-01-30T03:59:33;9.17;;;6.40;;
3309;SDS011;1667;53.238;10.394;2024-01-30T04:04:32;11.10;;;6.23;;
3309;SDS011;1667;53.238;10.394;2024-01-30T04:09:31;6.10;;;4.33;;
3309;SDS011;1667;53.238;10.394;2024-01-30T04:14:30;6.70;;;4.47;;
3309;SDS011;1667;53.238;10.394;2024-01-30T04:19:31;9.27;;;4.33;;
3309;SDS011;1667;53.238;10.394;2024-01-30T04:24:30;9.60;;;5.60;;
3309;SDS011;1667;53.238;10.394;2024-01-30T04:29:29;6.93;;;5.00;;
3309;SDS011;1667;53.238;10.394;2024-01-30T04:34:30;6.97;;;5.30;;
3309;SDS011;1667;53.238;10.394;2024-01-30T04:39:32;10.00;;;6.60;;
3309;SDS011;1667;53.238;10.394;2024-01-30T04:44:31;9.43;;;6.97;;
3309;SDS011;1667;53.238;10.394;2024-01-30T04:49:32;7.00;;;4.70;;
3309;SDS011;1667;53.238;10.394;2024-01-30T04:54:31;10.53;;;5.87;;
3309;SDS011;1667;53.238;10.394;2024-01-30T04:59:30;5.60;;;4.97;;
3309;SDS011;1667;53.238;10.394;2024-01-30T05:04:29;6.80;;;5.20;;
3309;SDS011;1667;53.238;10.394;2024-01-30T05:09:29;8.03;;;6.37;;
3309;SDS011;1667;53.238;10.394;2024-01-30T05:14:28;7.00;;;4.90;;
3309;SDS011;1667;53.238;10.394;2024-01-30T05:19:27;6.00;;;4.80;;
3309;SDS011;1667;53.238;10.394;2024-01-30T05:24:26;9.40;;;6.43;;
3309;SDS011;1667;53.238;10.394;2024-01-30T05:29:26;6.50;;;4.60;;
3309;SDS011;1667;53.238;10.394;2024-01-30T05:34:26;8.50;;;5.80;;
3309;SDS011;1667;53.238;10.394;2024-01-30T05:39:25;7.60;;;5.50;;
3309;SDS011;1667;53.238;10.394;2024-01-30T05:44:25;10.63;;;5.50;;
3309;SDS011;1667;53.238;10.394;2024-01-30T05:49:25;8.10;;;5.60;;
3309;SDS011;1667;53.238;10.394;2024-01-30T05:54:24;8.50;;;6.40;;
3309;SDS011;1667;53.238;10.394;2024-01-30T05:59:23;16.47;;;8.23;;
3309;SDS011;1667;53.238;10.394;2024-01-30T06:04:24;11.03;;;6.50;;
3309;SDS011;1667;53.238;10.394;2024-01-30T06:09:23;10.27;;;6.40;;
3309;SDS011;1667;53.238;10.394;2024-01-30T06:14:22;10.63;;;7.63;;
3309;SDS011;1667;53.238;10.394;2024-01-30T06:19:22;10.70;;;6.90;;
3309;SDS011;1667;53.238;10.394;2024-01-30T06:24:21;10.60;;;6.83;;
3309;SDS011;1667;53.238;10.394;2024-01-30T06:29:20;11.50;;;6.37;;
3309;SDS011;1667;53.238;10.394;2024-01-30T06:34:23;15.20;;;7.70;;
3309;SDS011;1667;53.238;10.394;2024-01-30T06:39:23;11.77;;;6.17;;
3309;SDS011;1667;53.238;10.394;2024-01-30T06:44:22;10.93;;;7.27;;
3309;SDS011;1667;53.238;10.394;2024-01-30T06:49:23;9.70;;;5.80;;
3309;SDS011;1667;53.238;10.394;2024-01-30T06:54:22;7.17;;;5.70;;
3309;SDS011;1667;53.238;10.394;2024-01-30T06:59:20;9.53;;;6.60;;
3309;SDS011;1667;53.238;10.394;2024-01-30T07:04:19;11.17;;;7.20;;
3309;SDS011;1667;53.238;10.394;2024-01-30T07:09:20;8.73;;;6.00;;
3309;SDS011;1667;53.238;10.394;2024-01-30T07:14:20;14.47;;;6.90;;
3309;SDS011;1667;53.238;10.394;2024-01-30T07:19:19;9.40;;;6.30;;
3309;SDS011;1667;53.238;10.394;2024-01-30T07:24:19;8.40;;;6.40;;
3309;SDS011;1667;53.238;10.394;2024-01-30T07:29:18;14.80;;;7.53;;
3309;SDS011;1667;53.238;10.394;2024-01-30T07:34:17;12.60;;;6.77;;
3309;SDS011;1667;53.238;10.394;2024-01-30T07:39:16;8.53;;;7.00;;
3309;SDS011;1667;53.238;10.394;2024-01-30T07:44:16;11.67;;;6.77;;
3309;SDS011;1667;53.238;10.394;2024-01-30T07:49:15;8.20;;;6.50;;
3309;SDS011;1667;53.238;10.394;2024-01-30T07:54:14;10.47;;;7.43;;
3309;SDS011;1667;53.238;10.394;2024-01-30T07:59:17;8.10;;;5.00;;
3309;SDS011;1667;53.238;10.394;2024-01-30T08:04:18;8.43;;;6.87;;
3309;SDS011;1667;53.238;10.394;2024-01-30T08:09:18;10.63;;;5.97;;
3309;SDS011;1667;53.238;10.394;2024-01-30T08:14:18;20.73;;;8.53;;
3309;SDS011;1667;53.238;10.394;2024-01-30T08:19:17;13.13;;;6.77;;
3309;SDS011;1667;53.238;10.394;2024-01-30T08:24:17;9.13;;;5.83;;
3309;SDS011;1667;53.238;10.394;2024-01-30T08:29:18;9.50;;;5.30;;
3309;SDS011;1667;53.238;10.394;2024-01-30T08:34:17;7.80;;;6.27;;
3309;SDS011;1667;53.238;10.394;2024-01-30T08:39:16;9.00;;;6.53;;
3309;SDS011;1667;53.238;10.394;2024-01-30T08:44:18;11.60;;;8.13;;
3309;SDS011;1667;53.238;10.394;2024-01-30T08:49:16;19.27;;;9.70;;
3309;SDS011;1667;53.238;10.394;2024-01-30T08:54:15;11.37;;;7.50;;
3309;SDS011;1667;53.238;10.394;2024-01-30T08:59:15;19.63;;;11.80;;
3309;SDS011;1667;53.238;10.394;2024-01-30T09:04:15;16.77;;;9.17;;
3309;SDS011;1667;53.238;10.394;2024-01-30T09:09:16;12.37;;;7.73;;
3309;SDS011;1667;53.238;10.394;2024-01-30T09:14:16;9.97;;;7.50;;
3309;SDS011;1667;53.238;10.394;2024-01-30T09:19:16;10.20;;;7.00;;
3309;SDS011;1667;53.238;10.394;2024-01-30T09:24:16;7.13;;;5.20;;
3309;SDS011;1667;53.238;10.394;2024-01-30T09:29:15;7.87;;;5.60;;
3309;SDS011;1667;53.238;10.394;2024-01-30T09:34:14;9.97;;;6.10;;
3309;SDS011;1667;53.238;10.394;2024-01-30T09:39:14;10.00;;;5.77;;
3309;SDS011;1667;53.238;10.394;2024-01-30T09:44:14;10.10;;;6.57;;
3309;SDS011;1667;53.238;10.394;2024-01-30T09:49:14;7.93;;;5.47;;
3309;SDS011;1667;53.238;10.394;2024-01-30T09:54:18;7.37;;;5.40;;
3309;SDS011;1667;53.238;10.394;2024-01-30T09:59:18;12.17;;;5.77;;
3309;SDS011;1667;53.238;10.394;2024-01-30T10:04:17;8.07;;;5.43;;
3309;SDS011;1667;53.238;10.394;2024-01-30T10:09:17;7.57;;;6.00;;
3309;SDS011;1667;53.238;10.394;2024-01-30T10:14:16;7.90;;;6.00;;
3309;SDS011;1667;53.238;10.394;2024-01-30T10:19:15;9.40;;;5.53;;
3309;SDS011;1667;53.238;10.394;2024-01-30T10:24:14;8.30;;;6.00;;
3309;SDS011;1667;53.238;10.394;2024-01-30T10:29:16;7.60;;;5.17;;
3309;SDS011;1667;53.238;10.394;2024-01-30T10:34:15;8.93;;;6.10;;
3309;SDS011;1667;53.238;10.394;2024-01-30T10:39:19;13.23;;;5.73;;
3309;SDS011;1667;53.238;10.394;2024-01-30T10:44:20;6.63;;;4.83;;
3309;SDS011;1667;53.238;10.394;2024-01-30T10:49:21;9.50;;;5.60;;
3309;SDS011;1667;53.238;10.394;2024-01-30T10:54:21;8.50;;;5.53;;
3309;SDS011;1667;53.238;10.394;2024-01-30T10:59:23;7.90;;;5.00;;
3309;SDS011;1667;53.238;10.394;2024-01-30T11:04:25;8.90;;;4.93;;
3309;SDS011;1667;53.238;10.394;2024-01-30T11:09:24;9.60;;;5.07;;
3309;SDS011;1667;53.238;10.394;2024-01-30T11:14:28;8.57;;;5.03;;
3309;SDS011;1667;53.238;10.394;2024-01-30T11:19:30;8.50;;;5.30;;
3309;SDS011;1667;53.238;10.394;2024-01-30T11:24:30;9.13;;;5.00;;
3309;SDS011;1667;53.238;10.394;2024-01-30T11:29:38;11.93;;;4.67;;
3309;SDS011;1667;53.238;10.394;2024-01-30T11:34:40;5.60;;;4.57;;
3309;SDS011;1667;53.238;10.394;2024-01-30T11:39:40;7.20;;;5.30;;
3309;SDS011;1667;53.238;10.394;2024-01-30T11:44:45;5.73;;;4.70;;
3309;SDS011;1667;53.238;10.394;2024-01-30T11:49:45;8.97;;;5.00;;
3309;SDS011;1667;53.238;10.394;2024-01-30T11:54:44;6.47;;;4.77;;
3309;SDS011;1667;53.238;10.394;2024-01-30T11:59:45;4.37;;;3.97;;
3309;SDS011;1667;53.238;10.394;2024-01-30T12:04:44;4.87;;;3.87;;
3309;SDS011;1667;53.238;10.394;2024-01-30T12:09:42;8.57;;;4.53;;
3309;SDS011;1667;53.238;10.394;2024-01-30T12:14:51;7.00;;;4.63;;
3309;SDS011;1667;53.238;10.394;2024-01-30T12:19:51;7.50;;;4.50;;
3309;SDS011;1667;53.238;10.394;2024-01-30T12:24:51;6.60;;;4.93;;
3309;SDS011;1667;53.238;10.394;2024-01-30T12:29:56;5.53;;;4.13;;
3309;SDS011;1667;53.238;10.394;2024-01-30T12:34:56;5.97;;;3.80;;
3309;SDS011;1667;53.238;10.394;2024-01-30T12:39:57;5.83;;;4.60;;
3309;SDS011;1667;53.238;10.394;2024-01-30T12:44:58;7.73;;;4.47;;
3309;SDS011;1667;53.238;10.394;2024-01-30T12:49:57;10.60;;;4.80;;
3309;SDS011;1667;53.238;10.394;2024-01-30T12:54:57;6.40;;;4.80;;
3309;SDS011;1667;53.238;10.394;2024-01-30T12:59:56;6.10;;;3.97;;
3309;SDS011;1667;53.238;10.394;2024-01-30T13:04:56;6.80;;;4.57;;
3309;SDS011;1667;53.238;10.394;2024-01-30T13:09:56;7.20;;;4.63;;
3309;SDS011;1667;53.238;10.394;2024-01-30T13:15:00;6.47;;;4.53;;
3309;SDS011;1667;53.238;10.394;2024-01-30T13:20:00;11.17;;;5.20;;
3309;SDS011;1667;53.238;10.394;2024-01-30T13:25:07;5.87;;;4.27;;
3309;SDS011;1667;53.238;10.394;2024-01-30T13:30:07;9.67;;;4.90;;
3309;SDS011;1667;53.238;10.394;2024-01-30T13:35:08;6.90;;;4.93;;
3309;SDS011;1667;53.238;10.394;2024-01-30T13:40:08;10.43;;;5.37;;
3309;SDS011;1667;53.238;10.394;2024-01-30T13:45:10;7.23;;;3.60;;
3309;SDS011;1667;53.238;10.394;2024-01-30T13:50:10;4.67;;;3.57;;
3309;SDS011;1667;53.238;10.394;2024-01-30T13:55:12;6.90;;;4.63;;
3309;SDS011;1667;53.238;10.394;2024-01-30T14:00:11;6.80;;;4.63;;
3309;SDS011;1667;53.238;10.394;2024-01-30T14:05:14;6.70;;;4.70;;
3309;SDS011;1667;53.238;10.394;2024-01-30T14:10:14;4.93;;;4.40;;
3309;SDS011;1667;53.238;10.394;2024-01-30T14:15:13;7.77;;;3.73;;
3309;SDS011;1667;53.238;10.394;2024-01-30T14:20:26;10.90;;;4.70;;
3309;SDS011;1667;53.238;10.394;2024-01-30T14:25:25;4.67;;;3.60;;
3309;SDS011;1667;53.238;10.394;2024-01-30T14:30:24;7.40;;;4.33;;
3309;SDS011;1667;53.238;10.394;2024-01-30T14:35:23;13.40;;;5.87;;
3309;SDS011;1667;53.238;10.394;2024-01-30T14:40:24;10.03;;;5.67;;
3309;SDS011;1667;53.238;10.394;2024-01-30T14:45:23;8.53;;;4.40;;
3309;SDS011;1667;53.238;10.394;2024-01-30T14:50:22;5.60;;;4.27;;
3309;SDS011;1667;53.238;10.394;2024-01-30T14:55:21;6.90;;;4.03;;
3309;SDS011;1667;53.238;10.394;2024-01-30T15:00:21;6.13;;;4.20;;
3309;SDS011;1667;53.238;10.394;2024-01-30T15:05:20;11.73;;;5.20;;
3309;SDS011;1667;53.238;10.394;2024-01-30T15:10:19;10.53;;;4.93;;
3309;SDS011;1667;53.238;10.394;2024-01-30T15:15:18;8.07;;;4.30;;
3309;SDS011;1667;53.238;10.394;2024-01-30T15:20:18;11.87;;;5.50;;
3309;SDS011;1667;53.238;10.394;2024-01-30T15:25:17;12.47;;;5.53;;
3309;SDS011;1667;53.238;10.394;2024-01-30T15:30:16;6.50;;;4.67;;
3309;SDS011;1667;53.238;10.394;2024-01-30T15:35:16;9.47;;;4.80;;
3309;SDS011;1667;53.238;10.394;2024-01-30T15:40:17;7.87;;;3.97;;
3309;SDS011;1667;53.238;10.394;2024-01-30T15:45:16;7.93;;;4.13;;
3309;SDS011;1667;53.238;10.394;2024-01-30T15:50:16;7.77;;;5.57;;
3309;SDS011;1667;53.238;10.394;2024-01-30T15:55:17;9.10;;;5.70;;
3309;SDS011;1667;53.238;10.394;2024-01-30T16:00:17;11.20;;;5.63;;
3309;SDS011;1667;53.238;10.394;2024-01-30T16:05:16;7.23;;;4.97;;
3309;SDS011;1667;53.238;10.394;2024-01-30T16:10:17;10.07;;;5.50;;
3309;SDS011;1667;53.238;10.394;2024-01-30T16:15:16;8.87;;;5.70;;
3309;SDS011;1667;53.238;10.394;2024-01-30T16:20:16;10.77;;;6.00;;
3309;SDS011;1667;53.238;10.394;2024-01-30T16:25:17;7.60;;;5.20;;
3309;SDS011;1667;53.238;10.394;2024-01-30T16:30:17;10.00;;;5.87;;
3309;SDS011;1667;53.238;10.394;2024-01-30T16:35:15;10.80;;;4.67;;
3309;SDS011;1667;53.238;10.394;2024-01-30T16:40:14;9.50;;;6.10;;
3309;SDS011;1667;53.238;10.394;2024-01-30T16:45:15;7.93;;;5.37;;
3309;SDS011;1667;53.238;10.394;2024-01-30T16:50:14;11.03;;;6.40;;
3309;SDS011;1667;53.238;10.394;2024-01-30T16:55:13;10.23;;;5.67;;
3309;SDS011;1667;53.238;10.394;2024-01-30T17:00:14;8.73;;;5.30;;
3309;SDS011;1667;53.238;10.394;2024-01-30T17:05:15;7.07;;;5.00;;
3309;SDS011;1667;53.238;10.394;2024-01-30T17:10:23;7.00;;;4.83;;
3309;SDS011;1667;53.238;10.394;2024-01-30T17:15:23;6.43;;;5.10;;
3309;SDS011;1667;53.238;10.394;2024-01-30T17:20:22;9.77;;;6.57;;
3309;SDS011;1667;53.238;10.394;2024-01-30T17:25:22;7.43;;;5.80;;
3309;SDS011;1667;53.238;10.394;2024-01-30T17:30:21;8.13;;;5.70;;
3309;SDS011;1667;53.238;10.394;2024-01-30T17:35:22;10.87;;;6.20;;
3309;SDS011;1667;53.238;10.394;2024-01-30T17:40:21;9.07;;;6.23;;
3309;SDS011;1667;53.238;10.394;2024-01-30T17:45:20;14.67;;;6.40;;
3309;SDS011;1667;53.238;10.394;2024-01-30T17:50:19;7.80;;;4.70;;
3309;SDS011;1667;53.238;10.394;2024-01-30T17:55:21;8.17;;;5.77;;
3309;SDS011;1667;53.238;10.394;2024-01-30T18:00:21;8.30;;;5.67;;
3309;SDS011;1667;53.238;10.394;2024-01-30T18:05:21;7.57;;;5.67;;
3309;SDS011;1667;53.238;10.394;2024-01-30T18:10:21;13.13;;;6.50;;
3309;SDS011;1667;53.238;10.394;2024-01-30T18:15:20;10.80;;;5.67;;
3309;SDS011;1667;53.238;10.394;2024-01-30T18:20:19;13.30;;;6.50;;
3309;SDS011;1667;53.238;10.394;2024-01-30T18:25:18;10.87;;;5.33;;
3309;SDS011;1667;53.238;10.394;2024-01-30T18:30:18;10.60;;;5.40;;
3309;SDS011;1667;53.238;10.394;2024-01-30T18:35:16;8.17;;;6.27;;
3309;SDS011;1667;53.238;10.394;2024-01-30T18:40:16;6.20;;;5.20;;
3309;SDS011;1667;53.238;10.394;2024-01-30T18:45:16;5.93;;;4.50;;
3309;SDS011;1667;53.238;10.394;2024-01-30T18:50:18;9.47;;;5.67;;
3309;SDS011;1667;53.238;10.394;2024-01-30T18:55:17;9.53;;;5.97;;
3309;SDS011;1667;53.238;10.394;2024-01-30T19:00:17;7.80;;;5.23;;
3309;SDS011;1667;53.238;10.394;2024-01-30T19:05:19;9.00;;;5.57;;
3309;SDS011;1667;53.238;10.394;2024-01-30T19:10:17;12.03;;;6.13;;
3309;SDS011;1667;53.238;10.394;2024-01-30T19:15:31;5.73;;;4.80;;
3309;SDS011;1667;53.238;10.394;2024-01-30T19:27:22;8.37;;;5.73;;
3309;SDS011;1667;53.238;10.394;2024-01-30T19:32:21;3.67;;;2.90;;
3309;SDS011;1667;53.238;10.394;2024-01-30T19:37:20;3.70;;;3.27;;
3309;SDS011;1667;53.238;10.394;2024-01-30T19:42:23;2.93;;;2.70;;
3309;SDS011;1667;53.238;10.394;2024-01-30T19:47:22;4.20;;;2.80;;
3309;SDS011;1667;53.238;10.394;2024-01-30T19:52:22;2.10;;;1.87;;
3309;SDS011;1667;53.238;10.394;2024-01-30T19:57:21;3.00;;;2.00;;
3309;SDS011;1667;53.238;10.394;2024-01-30T20:02:21;2.17;;;1.97;;
3309;SDS011;1667;53.238;10.394;2024-01-30T20:07:22;2.47;;;1.30;;
3309;SDS011;1667;53.238;10.394;2024-01-30T20:12:21;3.50;;;1.83;;
3309;SDS011;1667;53.238;10.394;2024-01-30T20:17:19;2.37;;;2.17;;
3309;SDS011;1667;53.238;10.394;2024-01-30T20:22:20;2.60;;;2.00;;
3309;SDS011;1667;53.238;10.394;2024-01-30T20:27:19;3.83;;;2.33;;
3309;SDS011;1667;53.238;10.394;2024-01-30T20:32:19;10.23;;;3.23;;
3309;SDS011;1667;53.238;10.394;2024-01-30T20:37:20;6.00;;;3.10;;
3309;SDS011;1667;53.238;10.394;2024-01-30T20:42:19;4.50;;;3.07;;
3309;SDS011;1667;53.238;10.394;2024-01-30T20:47:19;1.67;;;1.50;;
3309;SDS011;1667;53.238;10.394;2024-01-30T20:52:19;3.80;;;2.27;;
3309;SDS011;1667;53.238;10.394;2024-01-30T20:57:19;3.40;;;2.37;;
3309;SDS011;1667;53.238;10.394;2024-01-30T21:02:18;2.47;;;2.27;;
3309;SDS011;1667;53.238;10.394;2024-01-30T21:07:17;3.30;;;2.80;;
3309;SDS011;1667;53.238;10.394;2024-01-30T21:12:21;7.10;;;3.20;;
3309;SDS011;1667;53.238;10.394;2024-01-30T21:17:19;3.17;;;2.63;;
3309;SDS011;1667;53.238;10.394;2024-01-30T21:22:18;2.63;;;2.20;;
3309;SDS011;1667;53.238;10.394;2024-01-30T21:27:17;2.67;;;2.30;;
3309;SDS011;1667;53.238;10.394;2024-01-30T21:32:18;1.70;;;1.60;;
3309;SDS011;1667;53.238;10.394;2024-01-30T21:37:17;2.87;;;1.80;;
3309;SDS011;1667;53.238;10.394;2024-01-30T21:42:17;2.63;;;1.80;;
3309;SDS011;1667;53.238;10.394;2024-01-30T21:47:18;1.50;;;1.40;;
3309;SDS011;1667;53.238;10.394;2024-01-30T21:52:17;2.93;;;1.97;;
3309;SDS011;1667;53.238;10.394;2024-01-30T21:57:16;3.50;;;2.43;;
3309;SDS011;1667;53.238;10.394;2024-01-30T22:02:15;2.97;;;1.90;;
3309;SDS011;1667;53.238;10.394;2024-01-30T22:07:15;2.80;;;2.30;;
3309;SDS011;1667;53.238;10.394;2024-01-30T22:12:14;3.90;;;2.00;;
3309;SDS011;1667;53.238;10.394;2024-01-30T22:17:13;4.27;;;2.63;;
3309;SDS011;1667;53.238;10.394;2024-01-30T22:22:12;4.10;;;2.77;;
3309;SDS011;1667;53.238;10.394;2024-01-30T22:27:13;3.27;;;2.27;;
3309;SDS011;1667;53.238;10.394;2024-01-30T22:32:12;2.50;;;2.00;;
3309;SDS011;1667;53.238;10.394;2024-01-30T22:37:10;1.20;;;1.10;;
3309;SDS011;1667;53.238;10.394;2024-01-30T22:42:09;1.73;;;1.63;;
3309;SDS011;1667;53.238;10.394;2024-01-30T22:47:08;1.60;;;1.10;;
3309;SDS011;1667;53.238;10.394;2024-01-30T22:52:07;1.70;;;1.30;;
3309;SDS011;1667;53.238;10.394;2024-01-30T22:57:06;1.03;;;0.90;;
3309;SDS011;1667;53.238;10.394;2024-01-30T23:02:05;1.90;;;1.03;;
3309;SDS011;1667;53.238;10.394;2024-01-30T23:07:06;0.83;;;0.80;;
3309;SDS011;1667;53.238;10.394;2024-01-30T23:12:05;0.67;;;0.60;;
3309;SDS011;1667;53.238;10.394;2024-01-30T23:17:04;2.63;;;0.90;;
3309;SDS011;1667;53.238;10.394;2024-01-30T23:22:03;0.80;;;0.80;;
3309;SDS011;1667;53.238;10.394;2024-01-30T23:27:04;1.43;;;0.87;;
3309;SDS011;1667;53.238;10.394;2024-01-30T23:32:03;0.93;;;0.90;;
3309;SDS011;1667;53.238;10.394;2024-01-30T23:37:03;0.80;;;0.80;;
3309;SDS011;1667;53.238;10.394;2024-01-30T23:42:05;0.90;;;0.80;;
3309;SDS011;1667;53.238;10.394;2024-01-30T23:47:04;0.57;;;0.57;;
3309;SDS011;1667;53.238;10.394;2024-01-30T23:52:03;0.80;;;0.80;;
3309;SDS011;1667;53.238;10.394;2024-01-30T23:57:04;1.50;;;0.80;;
